CST,Max TemperatureF,Mean TemperatureF,Min TemperatureF,Max Dew PointF,MeanDew PointF,Min DewpointF,Max Humidity, Mean Humidity, Min Humidity, Max Sea Level PressureIn, Mean Sea Level PressureIn, Min Sea Level PressureIn, Max VisibilityMiles, Mean VisibilityMiles, Min VisibilityMiles, Max Wind SpeedMPH, Mean Wind SpeedMPH, Max Gust SpeedMPH,PrecipitationIn, CloudCover, Events, WindDirDegrees
2012-12-1,77,66,50,57,51,38,84,64,40,29.94,29.86,29.79,10,9,7,24,16,34,0.00,0,,192
2012-12-2,75,56,37,57,44,35,93,71,34,30.06,29.96,29.85,10,6,2,21,3,29,0.00,0,,186
2012-12-3,79,68,57,59,52,34,78,57,27,30.00,29.83,29.75,10,9,7,25,19,37,0.00,2,,212
2012-12-4,66,52,37,41,28,19,61,41,17,30.33,30.24,30.04,10,10,10,12,6,18,0.00,0,,16
2012-12-5,64,47,30,36,25,18,79,45,18,30.34,30.20,29.99,10,10,7,12,4,,0.00,0,,158
2012-12-6,69,58,46,47,45,41,89,68,39,29.97,29.84,29.75,10,9,4,17,11,26,0.00,0,,167
2012-12-7,50,47,44,47,44,41,93,88,80,29.93,29.86,29.82,7,4,0,8,2,,0.00,8,Fog,319
2012-12-8,52,48,45,45,43,41,90,78,71,29.96,29.88,29.79,6,4,2,6,2,,0.00,7,,15
2012-12-9,48,38,28,46,33,8,93,72,33,30.19,29.93,29.75,10,5,1,13,7,25,0.01,5,Rain,8
2012-12-10,36,28,19,10,5,1,53,42,23,30.26,30.17,30.11,10,10,10,13,8,26,0.00,1,,308
2012-12-11,50,36,21,17,12,7,63,42,23,30.22,30.15,30.11,10,10,10,10,7,,0.00,0,,198
2012-12-12,54,41,28,19,15,10,51,35,22,30.26,30.18,30.12,10,10,10,18,11,26,0.00,0,,175
2012-12-13,63,52,42,26,22,19,42,33,23,30.17,30.12,30.06,10,10,10,22,19,31,0.00,0,Rain,183
2012-12-14,57,52,48,48,38,23,89,60,31,30.08,29.89,29.68,10,9,2,21,16,31,0.12,6,Rain,171
2012-12-15,63,54,46,45,36,34,72,51,38,29.78,29.72,29.64,10,10,10,20,13,37,0.00,0,,218
2012-12-16,63,52,42,37,34,29,80,57,28,29.79,29.73,29.64,10,8,5,20,9,31,0.00,1,,268
2012-12-17,57,44,30,36,33,28,93,73,39,29.90,29.82,29.75,10,7,2,10,5,,0.00,1,,247
2012-12-18,64,52,41,33,27,21,73,43,19,29.81,29.76,29.69,10,10,9,12,8,,0.00,0,,112
2012-12-19,66,54,39,56,41,28,82,61,39,29.76,29.60,29.44,10,8,6,33,13,45,0.00,3,,184
2012-12-20,46,36,25,27,14,1,70,45,16,30.39,30.18,29.80,10,10,10,31,19,47,0.00,2,,310
2012-12-21,64,42,21,14,8,-4,63,29,6,30.38,30.30,30.21,10,10,10,14,6,20,0.00,0,,190
2012-12-22,61,48,35,28,11,8,48,24,13,30.19,30.07,29.93,10,10,10,16,9,24,0.00,0,,191
2012-12-23,48,38,27,33,25,21,82,62,38,30.03,29.93,29.87,10,7,4,9,6,16,0.00,0,,329
2012-12-24,39,30,21,20,18,16,82,63,43,30.10,30.02,29.95,8,5,3,12,6,,0.00,0,,35
2012-12-25,30,26,19,23,17,8,81,71,58,30.29,30.04,29.91,10,6,1,18,11,34,0.04,8,Rain-Snow,22
2012-12-26,30,21,12,17,11,6,75,65,49,30.35,30.25,30.14,10,10,10,13,6,23,0.00,1,,360
2012-12-27,37,29,21,27,22,17,85,74,59,30.11,29.99,29.90,10,7,4,18,7,28,0.00,2,,161
2012-12-28,35,28,19,28,18,9,86,61,37,30.24,30.07,29.97,10,7,2,12,5,21,0.00,4,Snow,331
2012-12-29,46,29,12,20,15,7,80,61,34,30.44,30.37,30.25,10,9,7,9,3,,0.00,0,,233
2012-12-30,45,36,28,24,20,17,75,52,33,30.39,30.29,30.16,10,10,8,23,11,33,0.00,2,Rain,182
2012-12-31,41,38,35,39,35,26,93,90,58,30.13,30.05,29.94,10,4,1,14,9,23,0.44,8,Rain,194